sensor_id;sensor_type;location;lat;lon;timestamp;temperature;humidity
52073;DHT22;38074;51.232;6.826;2022-12-10T00:05:11;22.70;34.90
52073;DHT22;38074;51.232;6.826;2022-12-10T00:12:27;22.70;34.90
52073;DHT22;38074;51.232;6.826;2022-12-10T00:19:42;22.70;34.90
52073;DHT22;38074;51.232;6.826;2022-12-10T00:26:58;22.70;34.90
52073;DHT22;38074;51.232;6.826;2022-12-10T00:34:13;22.70;34.90
52073;DHT22;38074;51.232;6.826;2022-12-10T00:41:29;22.70;34.80
52073;DHT22;38074;51.232;6.826;2022-12-10T00:48:45;22.70;34.90
52073;DHT22;38074;51.232;6.826;2022-12-10T00:56:01;22.70;34.90
52073;DHT22;38074;51.232;6.826;2022-12-10T01:03:17;22.70;34.80
52073;DHT22;38074;51.232;6.826;2022-12-10T01:10:32;22.70;34.80
52073;DHT22;38074;51.232;6.826;2022-12-10T01:17:48;22.70;34.80
52073;DHT22;38074;51.232;6.826;2022-12-10T01:25:03;22.70;34.80
52073;DHT22;38074;51.232;6.826;2022-12-10T01:32:19;22.70;34.80
52073;DHT22;38074;51.232;6.826;2022-12-10T01:39:34;22.70;34.90
52073;DHT22;38074;51.232;6.826;2022-12-10T01:46:56;22.70;34.80
52073;DHT22;38074;51.232;6.826;2022-12-10T01:54:15;22.80;34.80
52073;DHT22;38074;51.232;6.826;2022-12-10T02:16:40;22.80;34.80
52073;DHT22;38074;51.232;6.826;2022-12-10T02:24:01;22.70;34.70
52073;DHT22;38074;51.232;6.826;2022-12-10T02:31:23;22.80;34.80
52073;DHT22;38074;51.232;6.826;2022-12-10T02:38:40;22.80;34.80
52073;DHT22;38074;51.232;6.826;2022-12-10T02:46:02;22.80;35.50
52073;DHT22;38074;51.232;6.826;2022-12-10T02:53:18;22.80;34.70
52073;DHT22;38074;51.232;6.826;2022-12-10T03:00:41;22.80;34.80
52073;DHT22;38074;51.232;6.826;2022-12-10T03:08:24;22.80;34.80
52073;DHT22;38074;51.232;6.826;2022-12-10T03:15:43;22.80;34.60
52073;DHT22;38074;51.232;6.826;2022-12-10T03:23:01;22.80;34.80
52073;DHT22;38074;51.232;6.826;2022-12-10T03:30:17;22.80;34.70
52073;DHT22;38074;51.232;6.826;2022-12-10T03:37:34;22.80;34.70
52073;DHT22;38074;51.232;6.826;2022-12-10T03:44:51;22.80;34.80
52073;DHT22;38074;51.232;6.826;2022-12-10T03:52:06;22.80;34.70
52073;DHT22;38074;51.232;6.826;2022-12-10T03:59:22;22.80;34.70
52073;DHT22;38074;51.232;6.826;2022-12-10T04:06:39;22.80;34.70
52073;DHT22;38074;51.232;6.826;2022-12-10T04:13:54;22.80;34.70
52073;DHT22;38074;51.232;6.826;2022-12-10T04:21:30;22.80;34.70
52073;DHT22;38074;51.232;6.826;2022-12-10T04:29:05;22.80;34.80
52073;DHT22;38074;51.232;6.826;2022-12-10T04:36:21;22.80;34.80
52073;DHT22;38074;51.232;6.826;2022-12-10T04:43:37;22.80;34.70
52073;DHT22;38074;51.232;6.826;2022-12-10T04:50:53;22.80;34.70
52073;DHT22;38074;51.232;6.826;2022-12-10T04:58:08;22.80;34.70
52073;DHT22;38074;51.232;6.826;2022-12-10T05:05:24;22.80;34.80
52073;DHT22;38074;51.232;6.826;2022-12-10T05:12:39;22.80;34.80
52073;DHT22;38074;51.232;6.826;2022-12-10T05:19:55;22.80;34.70
52073;DHT22;38074;51.232;6.826;2022-12-10T05:27:10;22.80;34.80
52073;DHT22;38074;51.232;6.826;2022-12-10T05:34:26;22.80;34.80
52073;DHT22;38074;51.232;6.826;2022-12-10T05:41:42;22.80;34.70
52073;DHT22;38074;51.232;6.826;2022-12-10T05:48:59;22.80;34.70
52073;DHT22;38074;51.232;6.826;2022-12-10T05:56:17;22.80;34.40
52073;DHT22;38074;51.232;6.826;2022-12-10T06:03:36;22.80;34.70
52073;DHT22;38074;51.232;6.826;2022-12-10T06:10:51;22.80;34.80
52073;DHT22;38074;51.232;6.826;2022-12-10T06:18:07;22.80;34.80
52073;DHT22;38074;51.232;6.826;2022-12-10T06:25:22;22.80;34.80
52073;DHT22;38074;51.232;6.826;2022-12-10T06:32:38;22.80;34.80
52073;DHT22;38074;51.232;6.826;2022-12-10T06:39:54;22.80;34.90
52073;DHT22;38074;51.232;6.826;2022-12-10T06:47:10;22.80;34.80
52073;DHT22;38074;51.232;6.826;2022-12-10T06:54:25;22.80;34.90
52073;DHT22;38074;51.232;6.826;2022-12-10T07:01:41;22.80;34.80
52073;DHT22;38074;51.232;6.826;2022-12-10T07:08:56;22.80;34.70
52073;DHT22;38074;51.232;6.826;2022-12-10T07:16:14;22.80;34.70
52073;DHT22;38074;51.232;6.826;2022-12-10T07:23:29;22.80;34.70
52073;DHT22;38074;51.232;6.826;2022-12-10T07:30:45;22.70;34.40
52073;DHT22;38074;51.232;6.826;2022-12-10T07:38:00;22.70;34.60
52073;DHT22;38074;51.232;6.826;2022-12-10T07:45:16;22.70;34.70
52073;DHT22;38074;51.232;6.826;2022-12-10T07:52:31;22.70;34.60
52073;DHT22;38074;51.232;6.826;2022-12-10T07:59:47;22.80;34.70
52073;DHT22;38074;51.232;6.826;2022-12-10T08:07:02;22.70;34.60
52073;DHT22;38074;51.232;6.826;2022-12-10T08:14:18;22.70;35.00
52073;DHT22;38074;51.232;6.826;2022-12-10T08:21:33;22.70;35.00
52073;DHT22;38074;51.232;6.826;2022-12-10T08:28:49;22.60;34.40
52073;DHT22;38074;51.232;6.826;2022-12-10T08:36:06;22.60;34.20
52073;DHT22;38074;51.232;6.826;2022-12-10T08:43:22;22.60;34.20
52073;DHT22;38074;51.232;6.826;2022-12-10T08:50:38;22.60;34.20
52073;DHT22;38074;51.232;6.826;2022-12-10T08:57:54;22.60;34.20
52073;DHT22;38074;51.232;6.826;2022-12-10T09:05:10;22.70;34.30
52073;DHT22;38074;51.232;6.826;2022-12-10T09:12:26;22.70;34.30
52073;DHT22;38074;51.232;6.826;2022-12-10T09:19:42;22.70;34.30
52073;DHT22;38074;51.232;6.826;2022-12-10T09:26:57;22.70;34.40
52073;DHT22;38074;51.232;6.826;2022-12-10T09:34:13;22.70;34.40
52073;DHT22;38074;51.232;6.826;2022-12-10T09:56:51;22.70;34.50
52073;DHT22;38074;51.232;6.826;2022-12-10T10:04:09;22.70;34.60
52073;DHT22;38074;51.232;6.826;2022-12-10T10:11:30;22.80;34.80
52073;DHT22;38074;51.232;6.826;2022-12-10T10:18:58;22.80;34.80
52073;DHT22;38074;51.232;6.826;2022-12-10T10:26:15;22.80;34.90
52073;DHT22;38074;51.232;6.826;2022-12-10T10:33:30;22.80;34.90
52073;DHT22;38074;51.232;6.826;2022-12-10T10:40:50;22.80;35.00
52073;DHT22;38074;51.232;6.826;2022-12-10T10:55:33;22.80;35.20
52073;DHT22;38074;51.232;6.826;2022-12-10T11:02:51;22.90;35.40
52073;DHT22;38074;51.232;6.826;2022-12-10T11:10:21;22.90;35.40
52073;DHT22;38074;51.232;6.826;2022-12-10T11:17:46;23.10;35.60
52073;DHT22;38074;51.232;6.826;2022-12-10T11:25:04;23.10;35.60
52073;DHT22;38074;51.232;6.826;2022-12-10T11:47:55;23.10;36.30
52073;DHT22;38074;51.232;6.826;2022-12-10T11:55:32;23.20;36.40
52073;DHT22;38074;51.232;6.826;2022-12-10T12:17:51;23.40;36.90
52073;DHT22;38074;51.232;6.826;2022-12-10T12:25:10;23.40;37.00
52073;DHT22;38074;51.232;6.826;2022-12-10T12:47:32;23.40;37.40
52073;DHT22;38074;51.232;6.826;2022-12-10T12:54:50;23.40;37.60
52073;DHT22;38074;51.232;6.826;2022-12-10T13:17:33;23.50;37.80
52073;DHT22;38074;51.232;6.826;2022-12-10T13:25:11;23.50;38.10
52073;DHT22;38074;51.232;6.826;2022-12-10T13:39:59;23.70;38.60
52073;DHT22;38074;51.232;6.826;2022-12-10T14:09:57;23.80;39.40
52073;DHT22;38074;51.232;6.826;2022-12-10T14:17:23;23.80;39.50
52073;DHT22;38074;51.232;6.826;2022-12-10T14:24:39;23.80;39.70
52073;DHT22;38074;51.232;6.826;2022-12-10T14:31:56;23.80;39.90
52073;DHT22;38074;51.232;6.826;2022-12-10T14:39:17;23.80;39.90
52073;DHT22;38074;51.232;6.826;2022-12-10T14:46:33;23.90;40.90
52073;DHT22;38074;51.232;6.826;2022-12-10T14:53:50;23.90;40.10
52073;DHT22;38074;51.232;6.826;2022-12-10T15:01:12;24.00;40.10
52073;DHT22;38074;51.232;6.826;2022-12-10T15:08:30;24.00;40.00
52073;DHT22;38074;51.232;6.826;2022-12-10T15:15:48;24.00;39.80
52073;DHT22;38074;51.232;6.826;2022-12-10T15:30:45;24.00;39.20
52073;DHT22;38074;51.232;6.826;2022-12-10T15:38:12;23.90;39.20
52073;DHT22;38074;51.232;6.826;2022-12-10T15:45:38;23.80;39.00
52073;DHT22;38074;51.232;6.826;2022-12-10T15:52:54;23.70;38.50
52073;DHT22;38074;51.232;6.826;2022-12-10T16:00:25;23.60;38.60
52073;DHT22;38074;51.232;6.826;2022-12-10T16:07:40;23.50;38.20
52073;DHT22;38074;51.232;6.826;2022-12-10T16:14:56;23.40;38.30
52073;DHT22;38074;51.232;6.826;2022-12-10T16:22:15;23.40;38.20
52073;DHT22;38074;51.232;6.826;2022-12-10T16:29:30;23.30;38.00
52073;DHT22;38074;51.232;6.826;2022-12-10T16:36:45;23.30;37.90
52073;DHT22;38074;51.232;6.826;2022-12-10T16:44:01;23.30;37.80
52073;DHT22;38074;51.232;6.826;2022-12-10T16:51:26;23.30;37.80
52073;DHT22;38074;51.232;6.826;2022-12-10T16:58:44;23.20;37.60
52073;DHT22;38074;51.232;6.826;2022-12-10T17:06:01;23.10;37.30
52073;DHT22;38074;51.232;6.826;2022-12-10T17:13:22;23.00;36.90
52073;DHT22;38074;51.232;6.826;2022-12-10T17:20:38;23.00;36.70
52073;DHT22;38074;51.232;6.826;2022-12-10T17:27:54;23.00;36.90
52073;DHT22;38074;51.232;6.826;2022-12-10T17:35:10;23.00;37.20
52073;DHT22;38074;51.232;6.826;2022-12-10T17:42:25;23.00;37.20
52073;DHT22;38074;51.232;6.826;2022-12-10T17:49:41;23.00;37.30
52073;DHT22;38074;51.232;6.826;2022-12-10T17:56:56;23.00;37.40
52073;DHT22;38074;51.232;6.826;2022-12-10T18:04:12;23.00;37.40
52073;DHT22;38074;51.232;6.826;2022-12-10T18:11:31;23.00;37.40
52073;DHT22;38074;51.232;6.826;2022-12-10T18:18:48;23.00;37.50
52073;DHT22;38074;51.232;6.826;2022-12-10T18:26:08;23.00;37.40
52073;DHT22;38074;51.232;6.826;2022-12-10T18:33:25;23.00;37.50
52073;DHT22;38074;51.232;6.826;2022-12-10T18:40:41;23.00;37.50
52073;DHT22;38074;51.232;6.826;2022-12-10T18:47:57;23.00;37.50
52073;DHT22;38074;51.232;6.826;2022-12-10T18:55:12;23.00;37.60
52073;DHT22;38074;51.232;6.826;2022-12-10T19:02:28;23.00;37.50
52073;DHT22;38074;51.232;6.826;2022-12-10T19:09:43;23.00;37.50
52073;DHT22;38074;51.232;6.826;2022-12-10T19:16:59;22.90;37.40
52073;DHT22;38074;51.232;6.826;2022-12-10T19:24:15;22.90;37.50
52073;DHT22;38074;51.232;6.826;2022-12-10T19:31:31;22.90;37.40
52073;DHT22;38074;51.232;6.826;2022-12-10T19:38:46;22.90;37.40
52073;DHT22;38074;51.232;6.826;2022-12-10T19:46:28;22.90;37.40
52073;DHT22;38074;51.232;6.826;2022-12-10T19:53:45;22.90;37.30
52073;DHT22;38074;51.232;6.826;2022-12-10T20:01:00;22.90;37.10
52073;DHT22;38074;51.232;6.826;2022-12-10T20:08:21;22.90;37.00
52073;DHT22;38074;51.232;6.826;2022-12-10T20:15:36;22.90;36.80
52073;DHT22;38074;51.232;6.826;2022-12-10T20:22:52;22.90;36.80
52073;DHT22;38074;51.232;6.826;2022-12-10T20:30:18;22.80;36.50
52073;DHT22;38074;51.232;6.826;2022-12-10T20:37:33;22.80;36.30
52073;DHT22;38074;51.232;6.826;2022-12-10T20:44:49;22.80;36.50
52073;DHT22;38074;51.232;6.826;2022-12-10T20:52:05;22.80;36.10
52073;DHT22;38074;51.232;6.826;2022-12-10T20:59:20;22.80;36.20
52073;DHT22;38074;51.232;6.826;2022-12-10T21:06:36;22.80;36.10
52073;DHT22;38074;51.232;6.826;2022-12-10T21:13:51;22.80;36.00
52073;DHT22;38074;51.232;6.826;2022-12-10T21:21:11;22.80;35.90
52073;DHT22;38074;51.232;6.826;2022-12-10T21:28:27;22.70;35.60
52073;DHT22;38074;51.232;6.826;2022-12-10T21:35:43;22.70;35.70
52073;DHT22;38074;51.232;6.826;2022-12-10T21:42:59;22.80;35.60
52073;DHT22;38074;51.232;6.826;2022-12-10T21:50:33;22.70;35.40
52073;DHT22;38074;51.232;6.826;2022-12-10T21:57:48;22.70;35.30
52073;DHT22;38074;51.232;6.826;2022-12-10T22:05:05;22.80;35.40
52073;DHT22;38074;51.232;6.826;2022-12-10T22:12:20;22.80;35.20
52073;DHT22;38074;51.232;6.826;2022-12-10T22:19:36;22.70;35.10
52073;DHT22;38074;51.232;6.826;2022-12-10T22:26:52;22.70;35.10
52073;DHT22;38074;51.232;6.826;2022-12-10T22:34:07;22.70;34.90
52073;DHT22;38074;51.232;6.826;2022-12-10T22:41:23;22.70;34.80
52073;DHT22;38074;51.232;6.826;2022-12-10T22:48:38;22.70;34.80
52073;DHT22;38074;51.232;6.826;2022-12-10T22:55:58;22.70;34.80
52073;DHT22;38074;51.232;6.826;2022-12-10T23:03:14;22.70;34.40
52073;DHT22;38074;51.232;6.826;2022-12-10T23:10:30;22.70;34.40
52073;DHT22;38074;51.232;6.826;2022-12-10T23:17:45;22.70;34.40
52073;DHT22;38074;51.232;6.826;2022-12-10T23:25:01;22.70;34.30
52073;DHT22;38074;51.232;6.826;2022-12-10T23:32:17;22.80;34.30
52073;DHT22;38074;51.232;6.826;2022-12-10T23:39:32;22.80;34.30
52073;DHT22;38074;51.232;6.826;2022-12-10T23:46:48;22.80;34.20
52073;DHT22;38074;51.232;6.826;2022-12-10T23:54:03;22.80;34.30
